sensor_id;sensor_type;location;lat;lon;timestamp;pressure;altitude;pressure_sealevel;temperature;humidity
22333;BME280;11334;36.986;-121.936;2023-08-31T00:00:43;100372.56;;;37.09;35.15
22333;BME280;11334;36.986;-121.936;2023-08-31T00:03:11;100370.47;;;37.59;33.97
22333;BME280;11334;36.986;-121.936;2023-08-31T00:05:41;100370.91;;;38.16;32.89
22333;BME280;11334;36.986;-121.936;2023-08-31T00:08:08;100374.72;;;38.71;31.93
22333;BME280;11334;36.986;-121.936;2023-08-31T00:10:35;100370.31;;;39.21;31.20
22333;BME280;11334;36.986;-121.936;2023-08-31T00:13:05;100352.63;;;39.83;29.90
22333;BME280;11334;36.986;-121.936;2023-08-31T00:15:34;100351.41;;;40.11;29.09
22333;BME280;11334;36.986;-121.936;2023-08-31T00:18:02;100356.84;;;40.38;29.25
22333;BME280;11334;36.986;-121.936;2023-08-31T00:20:32;100346.06;;;40.86;28.58
22333;BME280;11334;36.986;-121.936;2023-08-31T00:23:01;100352.25;;;41.13;28.36
22333;BME280;11334;36.986;-121.936;2023-08-31T00:25:27;100347.31;;;41.44;28.23
22333;BME280;11334;36.986;-121.936;2023-08-31T00:27:54;100350.84;;;41.82;27.76
22333;BME280;11334;36.986;-121.936;2023-08-31T00:30:20;100346.31;;;42.18;27.40
22333;BME280;11334;36.986;-121.936;2023-08-31T00:32:47;100343.31;;;42.30;26.65
22333;BME280;11334;36.986;-121.936;2023-08-31T00:35:13;100351.13;;;42.69;26.31
22333;BME280;11334;36.986;-121.936;2023-08-31T00:37:39;100358.69;;;42.98;26.74
22333;BME280;11334;36.986;-121.936;2023-08-31T00:40:06;100360.06;;;43.11;26.36
22333;BME280;11334;36.986;-121.936;2023-08-31T00:42:34;100360.06;;;43.11;26.07
22333;BME280;11334;36.986;-121.936;2023-08-31T00:45:01;100358.06;;;43.08;25.97
22333;BME280;11334;36.986;-121.936;2023-08-31T00:47:28;100363.88;;;42.99;25.87
22333;BME280;11334;36.986;-121.936;2023-08-31T00:49:54;100360.38;;;43.06;26.14
22333;BME280;11334;36.986;-121.936;2023-08-31T00:52:21;100370.69;;;43.02;26.14
22333;BME280;11334;36.986;-121.936;2023-08-31T00:54:51;100358.50;;;42.84;25.39
22333;BME280;11334;36.986;-121.936;2023-08-31T00:57:18;100368.06;;;42.83;25.32
22333;BME280;11334;36.986;-121.936;2023-08-31T00:59:45;100369.09;;;42.72;25.80
22333;BME280;11334;36.986;-121.936;2023-08-31T01:02:22;100365.06;;;42.44;25.10
22333;BME280;11334;36.986;-121.936;2023-08-31T01:15:41;100359.56;;;41.40;26.69
22333;BME280;11334;36.986;-121.936;2023-08-31T01:18:11;100358.44;;;41.07;26.54
22333;BME280;11334;36.986;-121.936;2023-08-31T01:20:46;100364.97;;;40.95;26.71
22333;BME280;11334;36.986;-121.936;2023-08-31T01:23:19;100365.50;;;40.33;27.90
22333;BME280;11334;36.986;-121.936;2023-08-31T01:25:47;100362.59;;;39.84;28.06
22333;BME280;11334;36.986;-121.936;2023-08-31T01:28:14;100371.75;;;39.15;29.47
22333;BME280;11334;36.986;-121.936;2023-08-31T01:30:40;100371.00;;;38.08;30.20
22333;BME280;11334;36.986;-121.936;2023-08-31T01:33:11;100365.94;;;36.82;31.38
22333;BME280;11334;36.986;-121.936;2023-08-31T01:35:45;100365.06;;;35.67;33.18
22333;BME280;11334;36.986;-121.936;2023-08-31T01:38:16;100364.16;;;34.79;34.61
22333;BME280;11334;36.986;-121.936;2023-08-31T01:43:46;100363.28;;;32.82;37.96
22333;BME280;11334;36.986;-121.936;2023-08-31T01:46:14;100371.28;;;32.17;39.59
22333;BME280;11334;36.986;-121.936;2023-08-31T01:48:41;100376.56;;;31.42;41.22
22333;BME280;11334;36.986;-121.936;2023-08-31T01:51:10;100374.63;;;30.93;41.55
22333;BME280;11334;36.986;-121.936;2023-08-31T01:53:36;100373.44;;;30.39;42.29
22333;BME280;11334;36.986;-121.936;2023-08-31T01:56:03;100381.31;;;29.99;43.64
22333;BME280;11334;36.986;-121.936;2023-08-31T01:58:30;100382.00;;;29.30;44.60
22333;BME280;11334;36.986;-121.936;2023-08-31T02:00:57;100375.81;;;28.82;46.07
22333;BME280;11334;36.986;-121.936;2023-08-31T02:03:23;100385.00;;;28.48;46.82
22333;BME280;11334;36.986;-121.936;2023-08-31T02:05:49;100377.47;;;28.26;47.83
22333;BME280;11334;36.986;-121.936;2023-08-31T02:08:15;100380.59;;;27.95;49.00
22333;BME280;11334;36.986;-121.936;2023-08-31T02:10:45;100381.16;;;27.77;49.57
22333;BME280;11334;36.986;-121.936;2023-08-31T02:13:14;100386.38;;;27.54;50.17
22333;BME280;11334;36.986;-121.936;2023-08-31T02:15:42;100392.94;;;27.23;51.06
22333;BME280;11334;36.986;-121.936;2023-08-31T02:18:08;100393.72;;;26.94;52.23
22333;BME280;11334;36.986;-121.936;2023-08-31T02:20:34;100386.56;;;26.68;53.30
22333;BME280;11334;36.986;-121.936;2023-08-31T02:23:00;100378.09;;;26.50;54.46
22333;BME280;11334;36.986;-121.936;2023-08-31T02:25:27;100382.94;;;26.34;54.76
22333;BME280;11334;36.986;-121.936;2023-08-31T02:27:54;100386.63;;;26.13;55.87
22333;BME280;11334;36.986;-121.936;2023-08-31T02:30:21;100381.13;;;25.98;56.17
22333;BME280;11334;36.986;-121.936;2023-08-31T02:32:48;100388.69;;;25.91;56.70
22333;BME280;11334;36.986;-121.936;2023-08-31T02:35:14;100395.38;;;25.74;57.85
22333;BME280;11334;36.986;-121.936;2023-08-31T02:37:41;100402.66;;;25.64;58.50
22333;BME280;11334;36.986;-121.936;2023-08-31T02:40:07;100402.88;;;25.57;58.63
22333;BME280;11334;36.986;-121.936;2023-08-31T02:42:34;100395.44;;;25.43;59.05
22333;BME280;11334;36.986;-121.936;2023-08-31T02:45:03;100401.47;;;25.19;59.56
22333;BME280;11334;36.986;-121.936;2023-08-31T02:47:29;100400.25;;;25.05;60.31
22333;BME280;11334;36.986;-121.936;2023-08-31T02:49:55;100407.75;;;24.93;61.00
22333;BME280;11334;36.986;-121.936;2023-08-31T02:52:22;100406.34;;;24.86;60.80
22333;BME280;11334;36.986;-121.936;2023-08-31T02:54:48;100409.97;;;24.75;60.94
22333;BME280;11334;36.986;-121.936;2023-08-31T02:57:14;100407.16;;;24.65;61.16
22333;BME280;11334;36.986;-121.936;2023-08-31T02:59:45;100418.50;;;24.62;61.33
22333;BME280;11334;36.986;-121.936;2023-08-31T03:02:12;100417.94;;;24.60;61.40
22333;BME280;11334;36.986;-121.936;2023-08-31T03:04:38;100419.47;;;24.51;61.18
22333;BME280;11334;36.986;-121.936;2023-08-31T03:07:05;100420.41;;;24.41;61.70
22333;BME280;11334;36.986;-121.936;2023-08-31T03:09:31;100421.72;;;24.17;63.26
22333;BME280;11334;36.986;-121.936;2023-08-31T03:11:57;100426.59;;;23.99;63.21
22333;BME280;11334;36.986;-121.936;2023-08-31T03:14:24;100424.69;;;23.94;63.59
22333;BME280;11334;36.986;-121.936;2023-08-31T03:16:50;100431.56;;;23.85;63.51
22333;BME280;11334;36.986;-121.936;2023-08-31T03:19:16;100435.53;;;23.78;63.98
22333;BME280;11334;36.986;-121.936;2023-08-31T03:21:42;100428.00;;;23.64;64.69
22333;BME280;11334;36.986;-121.936;2023-08-31T03:24:08;100438.31;;;23.67;64.40
22333;BME280;11334;36.986;-121.936;2023-08-31T03:26:35;100437.19;;;23.63;65.31
22333;BME280;11334;36.986;-121.936;2023-08-31T03:29:01;100433.19;;;23.65;65.11
22333;BME280;11334;36.986;-121.936;2023-08-31T03:31:29;100429.50;;;23.55;65.59
22333;BME280;11334;36.986;-121.936;2023-08-31T03:33:56;100437.66;;;23.44;66.34
22333;BME280;11334;36.986;-121.936;2023-08-31T03:36:23;100430.19;;;23.34;67.24
22333;BME280;11334;36.986;-121.936;2023-08-31T03:38:49;100429.69;;;23.37;66.81
22333;BME280;11334;36.986;-121.936;2023-08-31T03:41:15;100434.69;;;23.13;68.25
22333;BME280;11334;36.986;-121.936;2023-08-31T03:43:42;100443.38;;;23.14;68.14
22333;BME280;11334;36.986;-121.936;2023-08-31T03:46:08;100443.47;;;23.03;68.46
22333;BME280;11334;36.986;-121.936;2023-08-31T03:48:34;100446.72;;;23.05;68.53
22333;BME280;11334;36.986;-121.936;2023-08-31T03:51:00;100458.56;;;22.88;69.70
22333;BME280;11334;36.986;-121.936;2023-08-31T03:53:27;100464.81;;;22.77;70.48
22333;BME280;11334;36.986;-121.936;2023-08-31T03:55:53;100466.13;;;22.75;69.94
22333;BME280;11334;36.986;-121.936;2023-08-31T03:58:19;100481.16;;;22.82;69.90
22333;BME280;11334;36.986;-121.936;2023-08-31T04:00:49;100469.25;;;22.55;70.78
22333;BME280;11334;36.986;-121.936;2023-08-31T04:03:16;100485.09;;;22.63;71.00
22333;BME280;11334;36.986;-121.936;2023-08-31T04:05:42;100494.50;;;22.61;71.18
22333;BME280;11334;36.986;-121.936;2023-08-31T04:08:08;100488.34;;;22.65;71.11
22333;BME280;11334;36.986;-121.936;2023-08-31T04:10:34;100490.03;;;22.55;71.32
22333;BME280;11334;36.986;-121.936;2023-08-31T04:13:00;100497.56;;;22.53;71.87
22333;BME280;11334;36.986;-121.936;2023-08-31T04:15:27;100496.16;;;22.50;71.93
22333;BME280;11334;36.986;-121.936;2023-08-31T04:17:53;100496.53;;;22.43;72.50
22333;BME280;11334;36.986;-121.936;2023-08-31T04:20:19;100507.00;;;22.39;72.42
22333;BME280;11334;36.986;-121.936;2023-08-31T04:22:45;100497.34;;;22.43;71.48
22333;BME280;11334;36.986;-121.936;2023-08-31T04:25:12;100494.09;;;22.41;70.95
22333;BME280;11334;36.986;-121.936;2023-08-31T04:27:38;100495.28;;;22.34;71.04
22333;BME280;11334;36.986;-121.936;2023-08-31T04:30:07;100497.28;;;22.27;71.34
22333;BME280;11334;36.986;-121.936;2023-08-31T04:32:33;100492.38;;;22.24;71.63
22333;BME280;11334;36.986;-121.936;2023-08-31T04:35:02;100500.34;;;22.19;71.42
22333;BME280;11334;36.986;-121.936;2023-08-31T04:37:28;100495.19;;;22.18;71.42
22333;BME280;11334;36.986;-121.936;2023-08-31T04:39:54;100496.94;;;22.12;71.42
22333;BME280;11334;36.986;-121.936;2023-08-31T04:42:21;100498.69;;;22.07;71.40
22333;BME280;11334;36.986;-121.936;2023-08-31T04:44:47;100500.56;;;21.84;72.26
22333;BME280;11334;36.986;-121.936;2023-08-31T04:47:13;100502.09;;;21.80;72.79
22333;BME280;11334;36.986;-121.936;2023-08-31T04:49:40;100494.94;;;21.74;73.14
22333;BME280;11334;36.986;-121.936;2023-08-31T04:52:06;100470.63;;;21.51;73.47
22333;BME280;11334;36.986;-121.936;2023-08-31T04:54:32;100502.78;;;21.64;73.75
22333;BME280;11334;36.986;-121.936;2023-08-31T04:56:58;100496.44;;;21.58;73.83
22333;BME280;11334;36.986;-121.936;2023-08-31T04:59:24;100495.84;;;21.56;73.78
22333;BME280;11334;36.986;-121.936;2023-08-31T05:01:51;100490.72;;;21.55;73.60
22333;BME280;11334;36.986;-121.936;2023-08-31T05:04:17;100489.72;;;21.50;73.26
22333;BME280;11334;36.986;-121.936;2023-08-31T05:06:43;100481.16;;;21.30;74.02
22333;BME280;11334;36.986;-121.936;2023-08-31T05:09:09;100478.59;;;21.35;73.69
22333;BME280;11334;36.986;-121.936;2023-08-31T05:11:36;100489.03;;;21.43;73.37
22333;BME280;11334;36.986;-121.936;2023-08-31T05:14:02;100491.50;;;21.44;73.60
22333;BME280;11334;36.986;-121.936;2023-08-31T05:16:28;100490.47;;;21.45;73.72
22333;BME280;11334;36.986;-121.936;2023-08-31T05:18:54;100494.31;;;21.38;74.16
22333;BME280;11334;36.986;-121.936;2023-08-31T05:21:20;100483.00;;;21.29;74.91
22333;BME280;11334;36.986;-121.936;2023-08-31T05:23:46;100481.81;;;21.25;74.81
22333;BME280;11334;36.986;-121.936;2023-08-31T05:26:13;100475.38;;;21.15;75.57
22333;BME280;11334;36.986;-121.936;2023-08-31T05:28:40;100468.56;;;21.13;75.51
22333;BME280;11334;36.986;-121.936;2023-08-31T05:31:07;100460.22;;;21.03;75.64
22333;BME280;11334;36.986;-121.936;2023-08-31T05:33:33;100465.00;;;21.01;75.59
22333;BME280;11334;36.986;-121.936;2023-08-31T05:36:02;100461.94;;;20.97;76.08
22333;BME280;11334;36.986;-121.936;2023-08-31T05:38:32;100466.25;;;20.87;76.50
22333;BME280;11334;36.986;-121.936;2023-08-31T05:41:08;100463.22;;;20.95;76.23
22333;BME280;11334;36.986;-121.936;2023-08-31T05:43:36;100462.94;;;20.85;76.12
22333;BME280;11334;36.986;-121.936;2023-08-31T05:46:02;100455.38;;;20.64;77.66
22333;BME280;11334;36.986;-121.936;2023-08-31T05:48:30;100461.97;;;20.68;77.18
22333;BME280;11334;36.986;-121.936;2023-08-31T05:50:57;100457.34;;;20.58;77.20
22333;BME280;11334;36.986;-121.936;2023-08-31T05:53:23;100448.28;;;20.52;77.12
22333;BME280;11334;36.986;-121.936;2023-08-31T05:55:49;100448.22;;;20.59;77.01
22333;BME280;11334;36.986;-121.936;2023-08-31T05:58:15;100450.91;;;20.59;77.29
22333;BME280;11334;36.986;-121.936;2023-08-31T06:00:41;100450.47;;;20.61;77.45
22333;BME280;11334;36.986;-121.936;2023-08-31T06:03:08;100451.94;;;20.58;77.13
22333;BME280;11334;36.986;-121.936;2023-08-31T06:05:35;100450.34;;;20.50;77.54
22333;BME280;11334;36.986;-121.936;2023-08-31T06:08:02;100449.47;;;20.56;77.48
22333;BME280;11334;36.986;-121.936;2023-08-31T06:10:28;100449.34;;;20.51;77.37
22333;BME280;11334;36.986;-121.936;2023-08-31T06:12:54;100449.34;;;20.51;77.28
22333;BME280;11334;36.986;-121.936;2023-08-31T06:15:21;100438.72;;;20.38;77.32
22333;BME280;11334;36.986;-121.936;2023-08-31T06:17:47;100448.66;;;20.38;77.23
22333;BME280;11334;36.986;-121.936;2023-08-31T06:20:13;100436.47;;;20.35;77.09
22333;BME280;11334;36.986;-121.936;2023-08-31T06:22:39;100447.47;;;20.34;77.09
22333;BME280;11334;36.986;-121.936;2023-08-31T06:25:09;100400.47;;;20.01;77.36
22333;BME280;11334;36.986;-121.936;2023-08-31T06:27:37;100444.13;;;20.21;77.83
22333;BME280;11334;36.986;-121.936;2023-08-31T06:30:03;100438.22;;;20.12;78.09
22333;BME280;11334;36.986;-121.936;2023-08-31T06:32:30;100442.25;;;20.03;78.23
22333;BME280;11334;36.986;-121.936;2023-08-31T06:34:56;100440.84;;;20.01;78.69
22333;BME280;11334;36.986;-121.936;2023-08-31T06:37:22;100447.31;;;19.94;79.07
22333;BME280;11334;36.986;-121.936;2023-08-31T06:39:48;100440.97;;;19.88;79.37
22333;BME280;11334;36.986;-121.936;2023-08-31T06:42:14;100440.81;;;19.83;78.97
22333;BME280;11334;36.986;-121.936;2023-08-31T06:44:41;100443.75;;;19.82;78.49
22333;BME280;11334;36.986;-121.936;2023-08-31T06:47:07;100438.47;;;19.69;78.76
22333;BME280;11334;36.986;-121.936;2023-08-31T06:49:33;100435.84;;;19.63;79.00
22333;BME280;11334;36.986;-121.936;2023-08-31T06:52:03;100444.28;;;19.66;79.09
22333;BME280;11334;36.986;-121.936;2023-08-31T06:54:33;100429.13;;;19.71;78.24
22333;BME280;11334;36.986;-121.936;2023-08-31T06:56:59;100443.41;;;19.72;78.31
22333;BME280;11334;36.986;-121.936;2023-08-31T06:59:26;100431.19;;;19.52;79.08
22333;BME280;11334;36.986;-121.936;2023-08-31T07:01:52;100445.84;;;19.56;78.56
22333;BME280;11334;36.986;-121.936;2023-08-31T07:04:18;100437.66;;;19.44;79.05
22333;BME280;11334;36.986;-121.936;2023-08-31T07:06:45;100434.97;;;19.44;78.89
22333;BME280;11334;36.986;-121.936;2023-08-31T07:09:11;100440.88;;;19.35;79.36
22333;BME280;11334;36.986;-121.936;2023-08-31T07:11:37;100442.03;;;19.45;79.03
22333;BME280;11334;36.986;-121.936;2023-08-31T07:14:03;100439.88;;;19.30;79.54
22333;BME280;11334;36.986;-121.936;2023-08-31T07:16:29;100449.16;;;19.33;79.66
22333;BME280;11334;36.986;-121.936;2023-08-31T07:18:56;100452.66;;;19.34;79.63
22333;BME280;11334;36.986;-121.936;2023-08-31T07:21:22;100443.00;;;19.27;79.60
22333;BME280;11334;36.986;-121.936;2023-08-31T07:23:48;100455.41;;;19.28;79.48
22333;BME280;11334;36.986;-121.936;2023-08-31T07:26:15;100449.25;;;19.21;79.59
22333;BME280;11334;36.986;-121.936;2023-08-31T07:28:41;100445.50;;;19.22;78.74
22333;BME280;11334;36.986;-121.936;2023-08-31T07:31:08;100446.34;;;19.22;78.34
22333;BME280;11334;36.986;-121.936;2023-08-31T07:33:34;100447.00;;;19.18;78.30
22333;BME280;11334;36.986;-121.936;2023-08-31T07:36:01;100454.91;;;19.13;78.14
22333;BME280;11334;36.986;-121.936;2023-08-31T07:38:30;100447.97;;;18.99;78.42
22333;BME280;11334;36.986;-121.936;2023-08-31T07:40:57;100456.56;;;19.07;78.34
22333;BME280;11334;36.986;-121.936;2023-08-31T07:43:23;100447.09;;;19.05;78.43
22333;BME280;11334;36.986;-121.936;2023-08-31T07:45:49;100453.06;;;19.07;78.44
22333;BME280;11334;36.986;-121.936;2023-08-31T07:48:15;100457.63;;;19.06;78.47
22333;BME280;11334;36.986;-121.936;2023-08-31T07:50:42;100454.78;;;19.01;79.13
22333;BME280;11334;36.986;-121.936;2023-08-31T07:53:09;100454.44;;;18.92;79.70
22333;BME280;11334;36.986;-121.936;2023-08-31T07:55:35;100450.91;;;18.85;79.77
22333;BME280;11334;36.986;-121.936;2023-08-31T07:58:01;100451.25;;;18.70;80.30
22333;BME280;11334;36.986;-121.936;2023-08-31T08:00:27;100455.53;;;18.78;80.15
22333;BME280;11334;36.986;-121.936;2023-08-31T08:02:54;100451.53;;;18.87;79.74
22333;BME280;11334;36.986;-121.936;2023-08-31T08:05:20;100451.16;;;18.83;79.95
22333;BME280;11334;36.986;-121.936;2023-08-31T08:07:46;100445.00;;;18.76;80.16
22333;BME280;11334;36.986;-121.936;2023-08-31T08:10:12;100438.56;;;18.77;79.49
22333;BME280;11334;36.986;-121.936;2023-08-31T08:12:41;100436.16;;;18.69;79.62
22333;BME280;11334;36.986;-121.936;2023-08-31T08:15:11;100443.19;;;18.70;79.03
22333;BME280;11334;36.986;-121.936;2023-08-31T08:17:37;100434.56;;;18.62;79.35
22333;BME280;11334;36.986;-121.936;2023-08-31T08:20:06;100430.50;;;18.53;79.90
22333;BME280;11334;36.986;-121.936;2023-08-31T08:22:32;100439.75;;;18.57;79.28
22333;BME280;11334;36.986;-121.936;2023-08-31T08:24:59;100429.88;;;18.51;79.62
22333;BME280;11334;36.986;-121.936;2023-08-31T08:27:26;100433.56;;;18.57;79.37
22333;BME280;11334;36.986;-121.936;2023-08-31T08:29:53;100437.88;;;18.58;79.57
22333;BME280;11334;36.986;-121.936;2023-08-31T08:32:19;100430.50;;;18.47;80.16
22333;BME280;11334;36.986;-121.936;2023-08-31T08:34:45;100435.25;;;18.45;80.16
22333;BME280;11334;36.986;-121.936;2023-08-31T08:37:11;100435.50;;;18.43;79.84
22333;BME280;11334;36.986;-121.936;2023-08-31T08:39:37;100445.63;;;18.41;79.57
22333;BME280;11334;36.986;-121.936;2023-08-31T08:42:04;100426.84;;;18.35;79.65
22333;BME280;11334;36.986;-121.936;2023-08-31T08:44:33;100435.09;;;18.40;79.77
22333;BME280;11334;36.986;-121.936;2023-08-31T08:47:01;100441.13;;;18.29;79.79
22333;BME280;11334;36.986;-121.936;2023-08-31T08:49:29;100444.44;;;18.25;80.36
22333;BME280;11334;36.986;-121.936;2023-08-31T08:51:56;100438.69;;;18.21;80.15
22333;BME280;11334;36.986;-121.936;2023-08-31T08:54:23;100434.53;;;18.25;79.63
22333;BME280;11334;36.986;-121.936;2023-08-31T08:56:49;100433.72;;;18.25;80.03
22333;BME280;11334;36.986;-121.936;2023-08-31T08:59:15;100439.97;;;18.12;80.51
22333;BME280;11334;36.986;-121.936;2023-08-31T09:01:42;100435.41;;;18.13;80.60
22333;BME280;11334;36.986;-121.936;2023-08-31T09:04:09;100436.03;;;18.08;80.70
22333;BME280;11334;36.986;-121.936;2023-08-31T09:06:36;100438.94;;;18.01;81.09
22333;BME280;11334;36.986;-121.936;2023-08-31T09:09:02;100430.88;;;18.01;80.71
22333;BME280;11334;36.986;-121.936;2023-08-31T09:11:29;100437.06;;;18.01;81.15
22333;BME280;11334;36.986;-121.936;2023-08-31T09:13:57;100435.44;;;17.94;81.25
22333;BME280;11334;36.986;-121.936;2023-08-31T09:18:51;100436.88;;;17.96;82.00
22333;BME280;11334;36.986;-121.936;2023-08-31T09:21:18;100430.06;;;18.00;81.70
22333;BME280;11334;36.986;-121.936;2023-08-31T09:24:05;100427.81;;;17.91;82.41
22333;BME280;11334;36.986;-121.936;2023-08-31T09:26:40;100426.44;;;17.82;83.31
22333;BME280;11334;36.986;-121.936;2023-08-31T09:29:07;100436.53;;;17.73;83.96
22333;BME280;11334;36.986;-121.936;2023-08-31T09:31:33;100435.50;;;17.68;84.41
22333;BME280;11334;36.986;-121.936;2023-08-31T09:33:59;100429.56;;;17.60;85.01
22333;BME280;11334;36.986;-121.936;2023-08-31T09:36:26;100436.78;;;17.53;85.22
22333;BME280;11334;36.986;-121.936;2023-08-31T09:38:58;100420.72;;;17.53;85.43
22333;BME280;11334;36.986;-121.936;2023-08-31T09:41:24;100429.75;;;17.65;85.49
22333;BME280;11334;36.986;-121.936;2023-08-31T09:43:51;100430.53;;;17.71;85.67
22333;BME280;11334;36.986;-121.936;2023-08-31T09:46:17;100430.78;;;17.64;86.37
22333;BME280;11334;36.986;-121.936;2023-08-31T09:48:44;100428.09;;;17.64;86.74
22333;BME280;11334;36.986;-121.936;2023-08-31T09:51:11;100430.59;;;17.59;87.37
22333;BME280;11334;36.986;-121.936;2023-08-31T09:53:38;100428.75;;;17.59;86.59
22333;BME280;11334;36.986;-121.936;2023-08-31T09:56:06;100422.56;;;17.52;86.85
22333;BME280;11334;36.986;-121.936;2023-08-31T09:58:33;100435.16;;;17.52;86.86
22333;BME280;11334;36.986;-121.936;2023-08-31T10:00:59;100421.94;;;17.44;86.37
22333;BME280;11334;36.986;-121.936;2023-08-31T10:03:26;100436.56;;;17.41;87.23
22333;BME280;11334;36.986;-121.936;2023-08-31T10:05:54;100437.81;;;17.45;87.47
22333;BME280;11334;36.986;-121.936;2023-08-31T10:08:22;100434.72;;;17.48;87.11
22333;BME280;11334;36.986;-121.936;2023-08-31T10:10:49;100436.97;;;17.51;86.47
22333;BME280;11334;36.986;-121.936;2023-08-31T10:13:16;100436.38;;;17.49;86.28
22333;BME280;11334;36.986;-121.936;2023-08-31T10:15:44;100415.78;;;17.31;87.14
22333;BME280;11334;36.986;-121.936;2023-08-31T10:18:12;100431.84;;;17.43;87.83
22333;BME280;11334;36.986;-121.936;2023-08-31T10:20:44;100436.19;;;17.38;88.16
22333;BME280;11334;36.986;-121.936;2023-08-31T10:23:12;100444.63;;;17.41;87.94
22333;BME280;11334;36.986;-121.936;2023-08-31T10:28:26;100438.03;;;17.31;87.98
22333;BME280;11334;36.986;-121.936;2023-08-31T10:31:03;100434.94;;;17.40;88.51
22333;BME280;11334;36.986;-121.936;2023-08-31T10:33:45;100437.00;;;17.39;88.38
22333;BME280;11334;36.986;-121.936;2023-08-31T10:36:19;100432.88;;;17.36;89.12
22333;BME280;11334;36.986;-121.936;2023-08-31T10:43:54;100426.94;;;17.28;90.61
22333;BME280;11334;36.986;-121.936;2023-08-31T10:46:36;100427.94;;;17.27;90.64
22333;BME280;11334;36.986;-121.936;2023-08-31T10:51:41;100422.19;;;17.30;89.84
22333;BME280;11334;36.986;-121.936;2023-08-31T10:56:52;100431.03;;;17.30;90.06
22333;BME280;11334;36.986;-121.936;2023-08-31T10:59:21;100431.25;;;17.35;89.83
22333;BME280;11334;36.986;-121.936;2023-08-31T11:01:58;100437.22;;;17.31;90.37
22333;BME280;11334;36.986;-121.936;2023-08-31T11:04:27;100430.81;;;17.32;90.28
22333;BME280;11334;36.986;-121.936;2023-08-31T11:07:12;100429.00;;;17.32;90.15
22333;BME280;11334;36.986;-121.936;2023-08-31T11:09:39;100426.50;;;17.31;90.46
22333;BME280;11334;36.986;-121.936;2023-08-31T11:12:05;100419.31;;;17.25;90.72
22333;BME280;11334;36.986;-121.936;2023-08-31T11:14:33;100405.91;;;17.18;91.27
22333;BME280;11334;36.986;-121.936;2023-08-31T11:16:59;100412.50;;;17.22;91.33
22333;BME280;11334;36.986;-121.936;2023-08-31T11:19:27;100389.03;;;17.18;91.24
22333;BME280;11334;36.986;-121.936;2023-08-31T11:21:57;100420.34;;;17.30;91.83
22333;BME280;11334;36.986;-121.936;2023-08-31T11:24:23;100434.34;;;17.26;92.96
22333;BME280;11334;36.986;-121.936;2023-08-31T11:26:54;100431.03;;;17.30;92.39
22333;BME280;11334;36.986;-121.936;2023-08-31T11:29:21;100431.47;;;17.27;91.77
22333;BME280;11334;36.986;-121.936;2023-08-31T11:31:47;100436.38;;;17.24;91.56
22333;BME280;11334;36.986;-121.936;2023-08-31T11:34:15;100434.97;;;17.28;91.22
22333;BME280;11334;36.986;-121.936;2023-08-31T11:36:43;100430.22;;;17.23;90.99
22333;BME280;11334;36.986;-121.936;2023-08-31T11:39:10;100436.59;;;17.16;91.44
22333;BME280;11334;36.986;-121.936;2023-08-31T11:41:37;100437.66;;;17.15;91.79
22333;BME280;11334;36.986;-121.936;2023-08-31T11:44:17;100432.88;;;17.17;90.89
22333;BME280;11334;36.986;-121.936;2023-08-31T11:46:45;100428.94;;;17.07;90.51
22333;BME280;11334;36.986;-121.936;2023-08-31T11:49:17;100435.13;;;17.07;91.22
22333;BME280;11334;36.986;-121.936;2023-08-31T11:51:44;100432.44;;;17.07;90.57
22333;BME280;11334;36.986;-121.936;2023-08-31T11:54:11;100431.22;;;17.03;90.76
22333;BME280;11334;36.986;-121.936;2023-08-31T11:56:44;100427.50;;;16.98;91.10
22333;BME280;11334;36.986;-121.936;2023-08-31T11:59:16;100414.13;;;16.91;91.59
22333;BME280;11334;36.986;-121.936;2023-08-31T12:01:43;100417.19;;;16.95;91.62
22333;BME280;11334;36.986;-121.936;2023-08-31T12:04:14;100421.13;;;16.99;91.89
22333;BME280;11334;36.986;-121.936;2023-08-31T12:06:40;100418.22;;;16.87;92.19
22333;BME280;11334;36.986;-121.936;2023-08-31T12:09:08;100430.56;;;16.95;91.21
22333;BME280;11334;36.986;-121.936;2023-08-31T12:11:35;100432.00;;;16.97;90.88
22333;BME280;11334;36.986;-121.936;2023-08-31T12:14:02;100423.38;;;16.89;91.00
22333;BME280;11334;36.986;-121.936;2023-08-31T12:16:36;100424.41;;;16.88;90.88
22333;BME280;11334;36.986;-121.936;2023-08-31T12:19:05;100433.47;;;16.93;90.25
22333;BME280;11334;36.986;-121.936;2023-08-31T12:21:31;100440.84;;;16.85;90.69
22333;BME280;11334;36.986;-121.936;2023-08-31T12:24:00;100443.34;;;16.86;90.62
22333;BME280;11334;36.986;-121.936;2023-08-31T12:26:29;100440.44;;;16.81;89.86
22333;BME280;11334;36.986;-121.936;2023-08-31T12:28:56;100442.09;;;16.76;89.98
22333;BME280;11334;36.986;-121.936;2023-08-31T12:31:25;100434.25;;;16.62;90.42
22333;BME280;11334;36.986;-121.936;2023-08-31T12:33:51;100443.94;;;16.76;89.94
22333;BME280;11334;36.986;-121.936;2023-08-31T12:36:17;100444.94;;;16.62;90.68
22333;BME280;11334;36.986;-121.936;2023-08-31T12:38:43;100447.84;;;16.67;90.51
22333;BME280;11334;36.986;-121.936;2023-08-31T12:41:10;100435.66;;;16.58;90.61
22333;BME280;11334;36.986;-121.936;2023-08-31T12:43:36;100443.28;;;16.54;91.24
22333;BME280;11334;36.986;-121.936;2023-08-31T12:46:02;100441.44;;;16.61;91.19
22333;BME280;11334;36.986;-121.936;2023-08-31T12:48:32;100434.25;;;16.62;90.89
22333;BME280;11334;36.986;-121.936;2023-08-31T12:50:58;100446.16;;;16.59;91.12